Time;durP1;ratioP1;P1;durP2;ratioP2;P2;SDS_P1;SDS_P2;PMS_P1;PMS_P2;Temp;Humidity;BMP_temperature;BMP_pressure;BME280_temperature;BME280_humidity;BME280_pressure;Samples;Min_cycle;Max_cycle;Signal;HPM_P1;HPM_P2
2024/01/18 00:01:33;;;;;;;1.67;1.10;;;10.70;99.90;;;;;;5073964;28;20461;-66
2024/01/18 00:03:59;;;;;;;2.33;2.13;;;10.70;99.90;;;;;;5074000;28;20455;-66
2024/01/18 00:06:25;;;;;;;1.67;0.90;;;10.70;99.90;;;;;;5073948;28;20959;-66
2024/01/18 00:08:50;;;;;;;1.70;1.10;;;10.60;99.90;;;;;;5074374;28;20895;-66
2024/01/18 00:11:19;;;;;;;2.20;1.23;;;10.60;99.90;;;;;;5073859;28;20878;-66
2024/01/18 00:13:44;;;;;;;1.03;0.93;;;10.50;99.90;;;;;;5074396;28;20197;-66
2024/01/18 00:16:10;;;;;;;1.10;1.00;;;10.50;99.90;;;;;;5074379;28;20473;-65
2024/01/18 00:18:36;;;;;;;1.47;0.93;;;10.50;99.90;;;;;;5074123;28;20182;-65
2024/01/18 00:21:03;;;;;;;1.10;1.00;;;10.40;99.90;;;;;;5073838;28;20546;-66
2024/01/18 00:23:28;;;;;;;1.23;0.90;;;10.40;99.90;;;;;;5073910;28;20199;-65
2024/01/18 00:25:54;;;;;;;0.97;0.80;;;10.40;99.90;;;;;;5073844;28;20462;-65
2024/01/18 00:28:19;;;;;;;1.20;1.00;;;10.40;99.90;;;;;;5073251;28;20176;-66
2024/01/18 00:30:45;;;;;;;1.10;1.00;;;10.40;99.90;;;;;;5073884;28;20682;-66
2024/01/18 00:33:11;;;;;;;1.20;1.10;;;10.40;99.90;;;;;;5073498;28;20196;-66
2024/01/18 00:35:36;;;;;;;0.90;0.80;;;10.40;99.90;;;;;;5073551;28;20287;-64
2024/01/18 00:38:02;;;;;;;3.63;1.10;;;10.50;99.90;;;;;;5073523;28;20181;-66
2024/01/18 00:40:28;;;;;;;1.37;1.13;;;10.40;99.90;;;;;;5074423;28;20194;-66
2024/01/18 00:42:53;;;;;;;1.10;0.90;;;10.40;99.90;;;;;;5073424;28;20508;-66
2024/01/18 00:45:19;;;;;;;1.00;0.90;;;10.30;99.90;;;;;;5073520;28;20248;-66
2024/01/18 00:47:44;;;;;;;1.30;1.07;;;10.30;99.90;;;;;;5073841;28;20174;-66
2024/01/18 00:50:10;;;;;;;1.17;0.70;;;10.30;99.90;;;;;;5073440;28;20173;-66
2024/01/18 00:52:36;;;;;;;1.93;1.30;;;10.30;99.90;;;;;;5073805;28;20227;-67
2024/01/18 00:55:01;;;;;;;1.27;0.90;;;10.30;99.90;;;;;;5073316;28;20604;-64
2024/01/18 00:57:28;;;;;;;1.33;0.93;;;10.40;99.90;;;;;;5073590;28;20184;-66
2024/01/18 00:59:54;;;;;;;1.63;1.00;;;10.40;99.90;;;;;;5055328;28;20670;-65
2024/01/18 01:02:20;;;;;;;1.13;0.80;;;10.50;99.90;;;;;;5073453;28;20436;-66
2024/01/18 01:04:46;;;;;;;0.97;0.73;;;10.50;99.90;;;;;;5073190;28;20176;-66
2024/01/18 01:07:11;;;;;;;1.00;0.73;;;10.50;99.90;;;;;;5073167;28;20173;-65
2024/01/18 01:09:37;;;;;;;1.27;0.80;;;10.40;99.90;;;;;;5073198;28;20169;-66
2024/01/18 01:12:03;;;;;;;0.90;0.70;;;10.50;99.90;;;;;;5073572;28;20614;-65
2024/01/18 01:14:28;;;;;;;1.30;1.03;;;10.50;99.90;;;;;;5072933;28;20211;-66
2024/01/18 01:16:54;;;;;;;1.20;0.93;;;10.50;99.90;;;;;;5073193;28;20216;-66
2024/01/18 01:19:19;;;;;;;1.73;0.90;;;10.50;99.90;;;;;;5073286;28;20188;-65
2024/01/18 01:21:45;;;;;;;1.57;0.80;;;10.40;99.90;;;;;;5072532;28;20177;-64
2024/01/18 01:24:11;;;;;;;1.00;0.90;;;10.40;99.90;;;;;;5072746;28;20235;-66
2024/01/18 01:26:36;;;;;;;1.67;1.13;;;10.50;99.90;;;;;;5072872;28;20264;-66
2024/01/18 01:29:03;;;;;;;1.23;1.13;;;10.60;99.90;;;;;;5072898;28;20192;-66
2024/01/18 01:31:28;;;;;;;1.40;1.20;;;10.50;99.90;;;;;;5073172;28;20169;-66
2024/01/18 01:33:54;;;;;;;1.00;0.80;;;10.50;99.90;;;;;;5072651;28;20436;-65
2024/01/18 01:36:19;;;;;;;2.00;1.10;;;10.40;99.90;;;;;;5072804;28;20185;-65
2024/01/18 01:38:45;;;;;;;1.47;1.17;;;10.30;99.90;;;;;;5074957;28;20183;-66
2024/01/18 01:41:11;;;;;;;1.20;1.07;;;10.40;99.90;;;;;;5077096;28;20177;-66
2024/01/18 01:43:36;;;;;;;1.40;0.87;;;10.40;99.90;;;;;;5076589;28;20208;-66
2024/01/18 01:46:02;;;;;;;1.20;1.00;;;10.40;99.90;;;;;;5076742;28;20180;-66
2024/01/18 01:48:28;;;;;;;0.80;0.60;;;10.40;99.90;;;;;;5076985;28;20173;-66
2024/01/18 01:50:54;;;;;;;1.40;0.83;;;10.40;99.90;;;;;;5076651;28;20306;-65
2024/01/18 01:53:21;;;;;;;2.00;1.47;;;10.50;99.90;;;;;;5077133;28;20451;-65
2024/01/18 01:55:47;;;;;;;1.20;0.80;;;10.50;99.90;;;;;;5076688;28;20183;-66
2024/01/18 01:58:15;;;;;;;1.63;1.00;;;10.50;99.90;;;;;;5058629;28;20416;-65
2024/01/18 02:00:41;;;;;;;1.00;0.80;;;10.60;99.90;;;;;;5076757;28;20561;-66
2024/01/18 02:03:08;;;;;;;0.93;0.70;;;10.60;99.90;;;;;;5076316;28;20508;-66
2024/01/18 02:05:34;;;;;;;0.90;0.70;;;10.60;99.90;;;;;;5076345;28;20410;-66
2024/01/18 02:08:00;;;;;;;0.87;0.80;;;10.60;99.90;;;;;;5077169;28;20430;-66
2024/01/18 02:10:27;;;;;;;0.97;0.80;;;10.50;99.90;;;;;;5076000;28;20410;-66
2024/01/18 02:12:53;;;;;;;1.27;0.80;;;10.50;99.90;;;;;;5076087;28;20284;-66
2024/01/18 02:15:19;;;;;;;0.90;0.80;;;10.50;99.90;;;;;;5076279;28;20413;-66
2024/01/18 02:17:44;;;;;;;1.23;0.70;;;10.30;99.90;;;;;;5076270;28;20453;-66
2024/01/18 02:20:11;;;;;;;0.87;0.80;;;10.30;99.90;;;;;;5075460;28;20552;-66
2024/01/18 02:22:43;;;;;;;1.37;0.97;;;10.40;99.90;;;;;;5075914;28;20677;-65
2024/01/18 02:25:20;;;;;;;0.90;0.63;;;10.40;99.90;;;;;;5075889;28;20395;-65
2024/01/18 02:27:46;;;;;;;2.43;1.00;;;10.50;99.90;;;;;;5058552;28;20385;-65
2024/01/18 02:30:12;;;;;;;1.00;0.80;;;10.40;99.90;;;;;;5076062;28;20498;-66
2024/01/18 02:32:37;;;;;;;1.03;0.80;;;10.50;99.90;;;;;;5075599;28;20197;-66
2024/01/18 02:35:03;;;;;;;1.20;0.73;;;10.50;99.90;;;;;;5075762;28;20521;-65
2024/01/18 02:37:30;;;;;;;1.13;1.03;;;10.50;99.90;;;;;;5076199;28;20170;-65
2024/01/18 02:39:56;;;;;;;1.30;1.00;;;10.50;99.90;;;;;;5075689;28;20430;-65
2024/01/18 02:42:21;;;;;;;0.90;0.63;;;10.50;99.90;;;;;;5075597;28;20431;-65
2024/01/18 02:44:47;;;;;;;1.50;1.00;;;10.60;99.90;;;;;;5075371;28;20820;-64
2024/01/18 02:47:13;;;;;;;1.17;0.70;;;10.60;99.90;;;;;;5075769;28;20166;-65
2024/01/18 02:49:39;;;;;;;1.03;0.93;;;10.70;99.90;;;;;;5074932;28;20416;-65
2024/01/18 02:52:05;;;;;;;2.50;0.90;;;10.70;99.90;;;;;;5075339;28;20218;-65
2024/01/18 02:54:31;;;;;;;2.10;1.13;;;10.80;99.90;;;;;;5075433;28;20257;-66
2024/01/18 02:56:56;;;;;;;1.30;1.07;;;10.80;99.90;;;;;;5075484;28;20413;-64
2024/01/18 02:59:22;;;;;;;1.20;0.80;;;10.70;99.90;;;;;;5075326;28;20181;-65
2024/01/18 03:01:48;;;;;;;1.33;0.80;;;10.70;99.90;;;;;;5075323;28;20622;-64
2024/01/18 03:04:13;;;;;;;1.40;1.17;;;10.70;99.90;;;;;;5075446;28;20201;-65
2024/01/18 03:06:39;;;;;;;7.97;0.80;;;10.80;99.90;;;;;;5075959;28;20170;-65
2024/01/18 03:09:04;;;;;;;2.07;0.90;;;10.70;99.90;;;;;;5075117;28;20264;-65
2024/01/18 03:11:30;;;;;;;0.90;0.70;;;10.60;99.90;;;;;;5075381;28;20191;-66
2024/01/18 03:13:55;;;;;;;1.40;1.00;;;10.50;99.90;;;;;;5075080;28;20209;-65
2024/01/18 03:16:21;;;;;;;2.17;0.80;;;10.50;99.90;;;;;;5074716;28;20210;-65
2024/01/18 03:18:47;;;;;;;1.13;0.83;;;10.40;99.90;;;;;;5075308;28;20174;-65
2024/01/18 03:21:13;;;;;;;1.13;1.03;;;10.50;99.90;;;;;;5075228;28;20170;-65
2024/01/18 03:23:39;;;;;;;1.27;1.03;;;10.40;99.90;;;;;;5074920;28;20474;-65
2024/01/18 03:26:06;;;;;;;1.10;0.80;;;10.60;99.90;;;;;;5074546;28;20285;-66
2024/01/18 03:28:31;;;;;;;1.10;0.70;;;10.70;99.90;;;;;;5074617;28;20846;-65
2024/01/18 03:30:57;;;;;;;1.00;0.90;;;10.60;99.90;;;;;;5074711;28;20227;-64
2024/01/18 03:33:23;;;;;;;1.43;1.00;;;10.70;99.90;;;;;;5074768;28;20199;-65
2024/01/18 03:35:48;;;;;;;1.50;1.20;;;10.50;99.90;;;;;;5074600;28;20757;-66
2024/01/18 03:38:14;;;;;;;1.40;0.80;;;10.60;99.90;;;;;;5074575;28;20645;-65
2024/01/18 03:40:40;;;;;;;1.93;1.17;;;10.70;99.90;;;;;;5074526;28;20173;-65
2024/01/18 03:43:05;;;;;;;1.37;0.90;;;10.70;99.90;;;;;;5075144;28;20235;-65
2024/01/18 03:45:31;;;;;;;0.90;0.80;;;10.70;99.90;;;;;;5074500;28;20259;-65
2024/01/18 03:47:57;;;;;;;2.30;1.20;;;10.80;99.90;;;;;;5074382;28;20174;-65
2024/01/18 03:50:22;;;;;;;1.60;1.00;;;10.70;99.90;;;;;;5074340;28;20411;-65
2024/01/18 03:52:48;;;;;;;1.67;1.10;;;10.70;99.90;;;;;;5056525;28;20245;-64
2024/01/18 03:55:13;;;;;;;1.33;1.00;;;10.50;99.90;;;;;;5074704;28;20174;-65
2024/01/18 03:57:40;;;;;;;1.27;0.80;;;10.50;99.90;;;;;;5074585;28;20236;-65
2024/01/18 04:00:07;;;;;;;1.10;0.80;;;10.50;99.90;;;;;;5074461;28;20196;-65
2024/01/18 04:02:32;;;;;;;1.37;0.80;;;10.50;99.90;;;;;;5055144;28;20467;-66
2024/01/18 04:04:58;;;;;;;1.93;0.93;;;10.40;99.90;;;;;;5074053;28;20524;-65
2024/01/18 04:07:23;;;;;;;1.77;1.10;;;10.40;99.90;;;;;;5074532;28;20536;-65
2024/01/18 04:09:49;;;;;;;1.50;1.33;;;10.30;99.90;;;;;;5074296;28;20202;-66
2024/01/18 04:12:15;;;;;;;1.10;1.00;;;10.30;99.90;;;;;;5073992;28;20184;-66
2024/01/18 04:14:43;;;;;;;8.83;7.93;;;10.10;99.90;;;;;;5073936;28;20176;-65
2024/01/18 04:17:11;;;;;;;9.33;8.53;;;9.80;99.90;;;;;;5073911;28;20794;-65
2024/01/18 04:19:38;;;;;;;12.10;9.20;;;9.50;99.90;;;;;;5074102;28;20413;-65
2024/01/18 04:22:03;;;;;;;10.60;9.60;;;9.30;99.90;;;;;;5074383;28;20954;-64
2024/01/18 04:24:29;;;;;;;10.47;9.33;;;9.30;99.90;;;;;;5073873;28;20493;-65
2024/01/18 04:26:55;;;;;;;13.43;12.13;;;9.40;99.90;;;;;;5074586;28;20251;-65
2024/01/18 04:29:20;;;;;;;12.00;10.90;;;9.40;99.90;;;;;;5079245;28;20228;-65
2024/01/18 04:31:46;;;;;;;10.50;9.50;;;9.20;99.90;;;;;;5075228;28;20249;-63
2024/01/18 04:34:12;;;;;;;11.47;10.43;;;9.20;99.90;;;;;;5073571;28;20470;-62
2024/01/18 04:36:38;;;;;;;10.00;9.10;;;9.10;99.90;;;;;;5073456;28;20171;-64
2024/01/18 04:39:03;;;;;;;8.73;7.93;;;9.00;99.90;;;;;;5073477;28;20767;-64
2024/01/18 04:41:29;;;;;;;11.57;8.80;;;8.80;99.90;;;;;;5073731;28;20240;-64
2024/01/18 04:43:54;;;;;;;10.27;9.37;;;8.70;99.90;;;;;;5073020;28;20687;-65
2024/01/18 04:46:22;;;;;;;12.23;11.10;;;8.50;99.90;;;;;;5064819;28;20709;-70
2024/01/18 04:48:48;;;;;;;9.87;8.97;;;8.60;99.90;;;;;;5064398;28;20207;-64
2024/01/18 04:51:13;;;;;;;8.63;7.93;;;8.70;99.90;;;;;;5063877;28;20416;-70
2024/01/18 04:53:39;;;;;;;8.53;7.83;;;8.60;99.90;;;;;;5063852;28;20206;-69
2024/01/18 04:56:05;;;;;;;9.93;9.03;;;8.60;99.90;;;;;;5063892;28;20205;-66
2024/01/18 04:58:31;;;;;;;8.90;8.10;;;8.50;99.90;;;;;;5063889;28;20420;-64
2024/01/18 05:00:57;;;;;;;11.70;10.60;;;8.70;99.90;;;;;;5063817;28;20449;-67
2024/01/18 05:03:22;;;;;;;9.87;9.07;;;8.70;99.90;;;;;;5063995;28;20205;-69
2024/01/18 05:05:48;;;;;;;8.03;7.33;;;8.70;99.90;;;;;;5063669;28;20260;-67
2024/01/18 05:08:14;;;;;;;7.67;6.93;;;8.70;99.90;;;;;;5063703;28;20575;-65
2024/01/18 05:10:39;;;;;;;8.70;8.00;;;8.60;99.90;;;;;;5063885;28;20173;-63
2024/01/18 05:13:05;;;;;;;8.23;7.37;;;8.60;99.90;;;;;;5062752;28;20616;-70
2024/01/18 05:15:30;;;;;;;7.63;7.00;;;8.50;99.90;;;;;;5063640;28;20662;-67
2024/01/18 05:17:57;;;;;;;7.63;7.03;;;8.40;99.90;;;;;;5063839;28;20218;-67
2024/01/18 05:20:23;;;;;;;8.10;7.40;;;8.10;99.90;;;;;;5063945;28;20234;-67
2024/01/18 05:22:48;;;;;;;10.33;9.00;;;8.00;99.90;;;;;;5063333;28;20747;-64
2024/01/18 05:25:14;;;;;;;8.50;7.77;;;8.00;99.90;;;;;;5063569;28;20691;-64
2024/01/18 05:27:40;;;;;;;8.27;7.47;;;8.20;99.90;;;;;;5063669;28;20239;-70
2024/01/18 05:30:07;;;;;;;11.57;10.07;;;8.30;99.90;;;;;;5066152;28;20169;-66
2024/01/18 05:32:33;;;;;;;8.83;7.80;;;8.50;99.90;;;;;;5073014;28;20185;-65
2024/01/18 05:35:01;;;;;;;7.60;7.00;;;8.30;99.90;;;;;;5069997;28;20403;-66
2024/01/18 05:37:26;;;;;;;7.90;7.20;;;8.20;99.90;;;;;;5063780;28;20260;-70
2024/01/18 05:39:53;;;;;;;7.53;6.93;;;8.00;99.90;;;;;;5063525;28;20487;-66
2024/01/18 05:42:18;;;;;;;6.63;6.10;;;7.90;99.90;;;;;;5063204;28;20177;-62
2024/01/18 05:44:45;;;;;;;7.73;7.03;;;7.90;99.90;;;;;;5063348;28;20447;-69
2024/01/18 05:47:11;;;;;;;7.13;6.53;;;7.90;99.90;;;;;;5063106;28;20166;-68
2024/01/18 05:49:36;;;;;;;7.90;7.20;;;7.80;99.90;;;;;;5066721;28;20902;-66
2024/01/18 05:52:03;;;;;;;7.90;7.20;;;7.60;99.90;;;;;;5072760;28;20543;-66
2024/01/18 05:54:28;;;;;;;9.57;7.87;;;7.50;99.90;;;;;;5072957;28;20178;-65
2024/01/18 05:56:54;;;;;;;8.33;7.53;;;7.80;99.90;;;;;;5072716;28;20407;-65
2024/01/18 05:59:20;;;;;;;8.37;7.57;;;7.80;99.90;;;;;;5072486;28;20393;-65
2024/01/18 06:01:45;;;;;;;8.13;7.43;;;7.50;99.90;;;;;;5073476;28;20608;-65
2024/01/18 06:04:11;;;;;;;7.37;6.77;;;7.70;99.90;;;;;;5054403;28;20199;-66
2024/01/18 06:06:36;;;;;;;9.23;8.40;;;7.60;99.90;;;;;;5072787;28;20268;-65
2024/01/18 06:09:02;;;;;;;8.13;7.40;;;7.50;99.90;;;;;;5072707;28;20208;-65
2024/01/18 06:11:27;;;;;;;6.73;6.13;;;7.20;99.90;;;;;;5072245;28;20563;-66
2024/01/18 06:13:53;;;;;;;5.73;5.07;;;7.00;99.90;;;;;;5072447;28;20273;-67
2024/01/18 06:16:19;;;;;;;4.80;4.40;;;6.60;99.90;;;;;;5072516;28;20172;-67
2024/01/18 06:18:45;;;;;;;5.33;4.93;;;6.40;99.90;;;;;;5072890;28;20552;-67
2024/01/18 06:21:11;;;;;;;4.00;3.70;;;6.40;99.90;;;;;;5073000;28;20403;-66
2024/01/18 06:23:37;;;;;;;4.20;3.83;;;6.20;99.90;;;;;;5072387;28;20193;-66
2024/01/18 06:26:07;;;;;;;3.73;3.40;;;5.90;99.90;;;;;;5074265;28;20195;-63
2024/01/18 06:28:33;;;;;;;4.20;3.80;;;5.80;99.90;;;;;;5075603;28;20399;-65
2024/01/18 06:30:58;;;;;;;3.73;3.43;;;5.80;99.90;;;;;;5076125;28;20527;-66
2024/01/18 06:33:24;;;;;;;3.20;2.90;;;5.80;99.90;;;;;;5076012;28;20190;-66
2024/01/18 06:35:52;;;;;;;4.10;3.20;;;5.80;99.90;;;;;;5075712;28;20228;-66
2024/01/18 06:38:20;;;;;;;2.83;2.63;;;6.10;99.90;;;;;;5076158;28;20410;-65
2024/01/18 06:40:46;;;;;;;3.30;3.00;;;6.20;99.90;;;;;;5075755;28;20403;-66
2024/01/18 06:43:11;;;;;;;3.70;3.40;;;6.20;99.90;;;;;;5075245;28;20468;-65
2024/01/18 06:45:37;;;;;;;2.97;2.77;;;6.30;99.90;;;;;;5075599;28;20417;-67
2024/01/18 06:48:02;;;;;;;2.83;2.63;;;6.30;99.90;;;;;;5075608;28;20250;-67
2024/01/18 06:50:28;;;;;;;2.83;2.63;;;6.40;99.90;;;;;;5075515;28;20595;-66
2024/01/18 06:52:54;;;;;;;2.70;2.50;;;6.30;99.90;;;;;;5075920;28;20196;-65
2024/01/18 06:55:21;;;;;;;3.10;2.70;;;6.20;99.90;;;;;;5075674;28;20169;-66
2024/01/18 06:57:48;;;;;;;3.20;3.00;;;6.10;99.90;;;;;;5075479;28;20164;-66
2024/01/18 07:00:14;;;;;;;3.00;2.70;;;6.10;99.90;;;;;;5075454;28;20464;-65
2024/01/18 07:02:40;;;;;;;2.40;2.30;;;6.30;99.90;;;;;;5075392;28;20513;-66
2024/01/18 07:05:06;;;;;;;4.60;2.73;;;6.30;99.90;;;;;;5075561;28;20494;-66
2024/01/18 07:07:32;;;;;;;3.47;2.73;;;6.30;99.90;;;;;;5075505;28;20197;-65
2024/01/18 07:09:57;;;;;;;2.40;2.20;;;6.20;99.90;;;;;;5075524;28;20163;-66
2024/01/18 07:12:24;;;;;;;2.53;2.33;;;6.00;99.90;;;;;;5074661;28;20188;-66
2024/01/18 07:14:50;;;;;;;2.47;2.27;;;6.10;99.90;;;;;;5075121;28;20223;-66
2024/01/18 07:17:16;;;;;;;2.33;2.00;;;6.20;99.90;;;;;;5075056;28;20413;-66
2024/01/18 07:19:42;;;;;;;2.60;2.40;;;6.30;99.90;;;;;;5075037;28;20259;-67
2024/01/18 07:22:08;;;;;;;4.83;4.30;;;6.40;99.90;;;;;;5075175;28;20851;-66
2024/01/18 07:24:34;;;;;;;5.03;4.50;;;6.00;99.90;;;;;;5057311;28;20200;-66
2024/01/18 07:26:59;;;;;;;6.00;5.07;;;5.90;99.90;;;;;;5074941;28;20163;-67
2024/01/18 07:29:25;;;;;;;4.67;3.37;;;5.90;99.90;;;;;;5075349;28;20408;-66
2024/01/18 07:31:50;;;;;;;4.13;3.03;;;5.70;99.90;;;;;;5074865;28;20744;-66
2024/01/18 07:34:16;;;;;;;3.83;2.97;;;5.60;99.90;;;;;;5074586;28;20224;-66
2024/01/18 07:36:43;;;;;;;3.50;2.57;;;5.50;99.90;;;;;;5054658;28;20167;-67
2024/01/18 07:39:09;;;;;;;2.20;2.00;;;5.70;99.90;;;;;;5054743;28;20602;-66
2024/01/18 07:41:35;;;;;;;4.60;2.53;;;5.40;99.90;;;;;;5054478;28;20482;-66
2024/01/18 07:44:00;;;;;;;1.90;1.80;;;5.30;99.90;;;;;;5054348;28;20601;-66
2024/01/18 07:46:26;;;;;;;2.33;2.13;;;5.50;99.90;;;;;;5072008;28;20259;-66
2024/01/18 07:48:52;;;;;;;2.60;2.40;;;5.70;99.90;;;;;;5074260;28;20157;-66
2024/01/18 07:51:18;;;;;;;3.63;2.40;;;5.90;99.90;;;;;;5074581;28;20742;-66
2024/01/18 07:53:43;;;;;;;2.63;2.43;;;6.00;99.90;;;;;;5074242;28;20188;-66
2024/01/18 07:56:09;;;;;;;2.47;2.37;;;6.00;99.90;;;;;;5074163;28;20187;-66
2024/01/18 07:58:35;;;;;;;2.80;2.60;;;6.10;99.90;;;;;;5074263;28;20233;-66
2024/01/18 08:01:01;;;;;;;2.43;2.33;;;6.00;99.90;;;;;;5074295;28;20170;-67
2024/01/18 08:03:27;;;;;;;2.57;2.37;;;5.90;99.90;;;;;;5074174;28;20199;-67
2024/01/18 08:05:53;;;;;;;2.60;2.40;;;6.00;99.90;;;;;;5074524;28;20414;-67
2024/01/18 08:08:18;;;;;;;3.07;2.77;;;6.00;99.90;;;;;;5074103;28;20398;-67
2024/01/18 08:10:44;;;;;;;2.87;2.33;;;6.10;99.90;;;;;;5074631;28;20199;-68
2024/01/18 08:13:10;;;;;;;2.60;2.40;;;6.10;99.90;;;;;;5073838;28;20188;-67
2024/01/18 08:15:35;;;;;;;3.23;2.90;;;5.90;99.90;;;;;;5073759;28;20171;-67
2024/01/18 08:18:01;;;;;;;2.63;2.43;;;5.70;99.90;;;;;;5073926;28;20411;-67
2024/01/18 08:20:26;;;;;;;3.07;2.77;;;5.70;99.90;;;;;;5073907;28;20177;-67
2024/01/18 08:22:52;;;;;;;2.50;2.30;;;5.60;99.90;;;;;;5073745;28;20244;-67
2024/01/18 08:25:17;;;;;;;2.47;2.27;;;5.30;99.90;;;;;;5073771;28;20308;-67
2024/01/18 08:27:44;;;;;;;3.17;2.83;;;5.20;99.90;;;;;;5073183;28;20177;-68
2024/01/18 08:30:10;;;;;;;2.63;2.43;;;5.10;99.90;;;;;;5073922;28;20175;-67
2024/01/18 08:32:36;;;;;;;3.90;2.97;;;5.10;99.90;;;;;;5073455;28;20433;-65
2024/01/18 08:35:03;;;;;;;3.57;3.27;;;5.20;99.90;;;;;;5073459;28;20732;-67
2024/01/18 08:37:28;;;;;;;3.43;3.13;;;5.20;99.90;;;;;;5073580;28;20590;-67
2024/01/18 08:39:54;;;;;;;3.20;2.90;;;5.10;99.90;;;;;;5073656;28;20475;-67
2024/01/18 08:42:19;;;;;;;3.27;2.93;;;5.10;99.90;;;;;;5073574;28;20252;-66
2024/01/18 08:44:48;;;;;;;3.20;2.90;;;5.00;99.90;;;;;;5073742;28;20188;-67
2024/01/18 08:47:14;;;;;;;3.57;3.27;;;5.00;99.90;;;;;;5074090;28;20194;-68
2024/01/18 08:49:39;;;;;;;2.83;2.60;;;4.80;99.90;;;;;;5073163;28;20938;-67
2024/01/18 08:52:05;;;;;;;4.13;3.73;;;4.70;99.90;;;;;;5073432;28;20518;-68
2024/01/18 08:54:31;;;;;;;3.50;3.20;;;4.70;99.90;;;;;;5073293;28;20220;-68
2024/01/18 08:56:57;;;;;;;3.80;3.40;;;4.60;99.90;;;;;;5073213;28;20918;-68
2024/01/18 08:59:23;;;;;;;4.10;3.50;;;4.70;99.90;;;;;;5055378;28;20467;-67
2024/01/18 09:01:50;;;;;;;3.63;3.33;;;4.80;99.90;;;;;;5073240;28;20812;-65
2024/01/18 09:04:16;;;;;;;3.23;2.67;;;4.70;99.90;;;;;;5073157;28;20191;-66
2024/01/18 09:06:45;;;;;;;3.70;3.40;;;4.50;99.90;;;;;;5077415;28;20416;-66
2024/01/18 09:09:11;;;;;;;2.73;2.53;;;4.70;99.90;;;;;;5075393;28;20481;-67
2024/01/18 09:11:37;;;;;;;3.10;2.90;;;4.50;99.90;;;;;;5073469;28;20457;-68
2024/01/18 09:14:03;;;;;;;3.40;2.60;;;4.40;99.90;;;;;;5073550;28;20541;-67
2024/01/18 09:16:30;;;;;;;3.43;3.13;;;4.40;99.90;;;;;;5073072;28;20407;-68
2024/01/18 09:18:56;;;;;;;3.50;3.03;;;4.30;99.90;;;;;;5073384;28;20848;-67
2024/01/18 09:21:21;;;;;;;2.80;2.60;;;4.20;99.90;;;;;;5073090;28;20401;-67
2024/01/18 09:23:47;;;;;;;3.47;3.17;;;4.20;99.90;;;;;;5072985;28;20193;-66
2024/01/18 09:26:12;;;;;;;3.10;2.83;;;4.10;99.90;;;;;;5073082;28;20170;-65
2024/01/18 09:28:38;;;;;;;3.50;3.20;;;4.20;99.90;;;;;;5073461;28;20252;-66
2024/01/18 09:31:03;;;;;;;3.20;2.90;;;4.20;99.90;;;;;;5073366;28;20289;-66
2024/01/18 09:33:29;;;;;;;2.80;2.60;;;4.20;99.90;;;;;;5073369;28;20194;-66
2024/01/18 09:35:55;;;;;;;4.00;3.60;;;4.20;99.90;;;;;;5073204;28;20181;-68
2024/01/18 09:38:21;;;;;;;4.17;3.87;;;4.10;99.90;;;;;;5073168;28;20242;-67
2024/01/18 09:40:48;;;;;;;3.90;3.57;;;4.10;99.90;;;;;;5073097;28;20414;-67
2024/01/18 09:43:15;;;;;;;2.30;1.93;;;4.20;99.90;;;;;;5073177;28;20468;-66
2024/01/18 09:45:45;;;;;;;2.80;2.20;;;3.90;99.90;;;;;;5072672;28;20404;-67
2024/01/18 09:48:12;;;;;;;2.50;2.30;;;3.70;99.90;;;;;;5073312;28;20381;-67
2024/01/18 09:50:44;;;;;;;3.70;1.97;;;3.60;99.90;;;;;;5072779;28;20771;-64
2024/01/18 09:53:11;;;;;;;2.47;2.00;;;3.50;99.90;;;;;;5072780;28;20438;-66
2024/01/18 09:55:36;;;;;;;1.60;1.50;;;3.40;99.90;;;;;;5072808;28;20419;-67
2024/01/18 09:58:03;;;;;;;2.67;2.30;;;3.40;99.90;;;;;;5073201;28;20479;-67
2024/01/18 10:00:31;;;;;;;2.27;2.07;;;3.50;99.90;;;;;;5075414;28;20166;-67
2024/01/18 10:02:57;;;;;;;2.47;2.27;;;3.60;99.90;;;;;;5076104;28;20485;-67
2024/01/18 10:05:25;;;;;;;2.10;1.90;;;3.60;99.90;;;;;;5075806;28;20459;-65
2024/01/18 10:07:50;;;;;;;1.90;1.80;;;3.80;99.90;;;;;;5076231;28;20945;-66
2024/01/18 10:10:18;;;;;;;1.73;1.60;;;3.80;99.90;;;;;;5076283;28;20404;-66
2024/01/18 10:12:47;;;;;;;2.20;2.00;;;3.60;99.90;;;;;;5076396;28;20186;-66
2024/01/18 10:15:35;;;;;;;2.03;1.70;;;3.50;99.90;;;;;;5076210;28;20404;-67
2024/01/18 10:18:04;;;;;;;2.57;2.20;;;3.40;99.90;;;;;;5076445;28;20376;-67
2024/01/18 10:20:30;;;;;;;2.33;2.13;;;3.40;99.90;;;;;;5076019;28;20392;-67
2024/01/18 10:22:57;;;;;;;2.20;2.03;;;3.30;99.90;;;;;;5075959;28;20450;-68
2024/01/18 10:25:25;;;;;;;2.50;2.30;;;3.20;99.90;;;;;;5075867;28;20894;-68
2024/01/18 10:27:52;;;;;;;3.60;2.10;;;3.10;99.90;;;;;;5075402;28;20435;-67
2024/01/18 10:30:18;;;;;;;2.30;2.10;;;3.30;99.90;;;;;;5057952;28;20756;-67
2024/01/18 10:32:45;;;;;;;1.90;1.80;;;3.30;99.90;;;;;;5075666;28;20437;-67
2024/01/18 10:35:21;;;;;;;3.63;2.10;;;3.10;99.90;;;;;;5075921;28;20257;-67
2024/01/18 10:37:48;;;;;;;1.70;1.50;;;3.20;99.90;;;;;;5075799;28;20403;-67
2024/01/18 10:40:18;;;;;;;2.63;2.30;;;3.10;99.90;;;;;;5075637;28;20407;-66
2024/01/18 10:42:45;;;;;;;2.13;1.93;;;3.00;99.90;;;;;;5075577;28;20436;-66
2024/01/18 10:45:12;;;;;;;2.30;2.10;;;3.10;99.90;;;;;;5075814;28;20400;-66
2024/01/18 10:47:38;;;;;;;2.83;2.27;;;3.20;99.90;;;;;;5075860;28;20820;-66
2024/01/18 10:50:06;;;;;;;2.10;1.90;;;3.00;99.90;;;;;;5075552;28;20397;-68
2024/01/18 10:52:35;;;;;;;2.63;2.40;;;3.20;99.90;;;;;;5075596;28;20190;-67
2024/01/18 10:55:06;;;;;;;3.00;2.20;;;3.20;99.90;;;;;;5075385;28;20949;-68
2024/01/18 10:57:31;;;;;;;1.97;1.77;;;3.30;99.90;;;;;;5075488;28;20412;-67
2024/01/18 10:59:59;;;;;;;2.33;1.97;;;3.10;99.90;;;;;;5075277;28;20410;-67
2024/01/18 11:02:25;;;;;;;2.37;2.17;;;3.20;99.90;;;;;;5075335;28;20186;-66
2024/01/18 11:04:54;;;;;;;2.97;2.70;;;3.00;99.90;;;;;;5075184;28;20440;-65
2024/01/18 11:07:20;;;;;;;3.27;2.87;;;3.00;99.90;;;;;;5075649;28;20238;-66
2024/01/18 11:09:46;;;;;;;2.83;2.50;;;3.10;99.90;;;;;;5075548;28;20428;-67
2024/01/18 11:12:13;;;;;;;3.10;2.80;;;3.10;99.90;;;;;;5074923;28;20913;-66
2024/01/18 11:14:41;;;;;;;3.70;3.40;;;3.30;99.90;;;;;;5075221;28;20409;-67
2024/01/18 11:17:16;;;;;;;3.70;3.30;;;3.30;99.90;;;;;;5075260;28;20461;-66
2024/01/18 11:19:43;;;;;;;2.63;2.43;;;3.40;99.90;;;;;;5074949;28;20889;-67
2024/01/18 11:22:23;;;;;;;4.10;2.60;;;3.20;99.90;;;;;;5075373;28;20451;-68
2024/01/18 11:24:49;;;;;;;2.40;2.20;;;3.20;99.90;;;;;;5074862;28;20432;-68
2024/01/18 11:27:19;;;;;;;2.17;1.97;;;3.10;99.90;;;;;;5074943;28;20408;-68
2024/01/18 11:29:47;;;;;;;2.63;2.43;;;3.20;99.90;;;;;;5075182;28;20740;-67
2024/01/18 11:32:14;;;;;;;3.00;2.70;;;3.30;99.90;;;;;;5075005;28;20512;-68
2024/01/18 11:34:40;;;;;;;3.50;3.20;;;3.20;99.90;;;;;;5075040;28;20409;-66
2024/01/18 11:37:14;;;;;;;3.53;3.23;;;3.20;99.90;;;;;;5074692;28;20423;-66
2024/01/18 11:39:51;;;;;;;3.07;2.87;;;3.10;99.90;;;;;;5056675;28;20423;-65
2024/01/18 11:42:22;;;;;;;4.00;3.60;;;3.10;99.90;;;;;;5074635;28;20410;-66
2024/01/18 11:44:54;;;;;;;4.27;3.37;;;3.10;99.90;;;;;;5074722;28;20941;-66
2024/01/18 11:47:21;;;;;;;3.13;2.93;;;3.10;99.90;;;;;;5074449;28;20415;-66
2024/01/18 11:49:47;;;;;;;3.70;3.40;;;3.00;99.90;;;;;;5074384;28;20412;-66
2024/01/18 11:52:13;;;;;;;4.00;3.60;;;3.00;99.90;;;;;;5074554;28;20408;-67
2024/01/18 11:54:42;;;;;;;4.73;3.50;;;3.10;99.90;;;;;;5074178;28;20401;-66
2024/01/18 11:57:13;;;;;;;3.27;3.03;;;3.10;99.90;;;;;;5074525;28;20411;-66
2024/01/18 11:59:43;;;;;;;3.23;3.03;;;3.10;99.90;;;;;;5074523;28;20420;-68
2024/01/18 12:02:10;;;;;;;3.13;2.70;;;3.30;99.90;;;;;;5074305;28;20443;-69
2024/01/18 12:04:36;;;;;;;4.30;3.40;;;3.10;99.90;;;;;;5074191;28;20448;-68
2024/01/18 12:07:01;;;;;;;3.90;3.60;;;3.00;99.90;;;;;;5074229;28;20408;-67
2024/01/18 12:09:30;;;;;;;3.90;3.60;;;3.00;99.90;;;;;;5074030;28;20249;-67
2024/01/18 12:11:57;;;;;;;5.27;3.23;;;2.90;99.90;;;;;;5074007;28;20167;-68
2024/01/18 12:14:23;;;;;;;4.07;3.70;;;2.90;99.90;;;;;;5073749;28;20428;-68
2024/01/18 12:16:49;;;;;;;4.50;3.97;;;2.90;99.90;;;;;;5073895;28;20909;-68
2024/01/18 12:19:33;;;;;;;4.17;3.77;;;2.90;99.90;;;;;;5073963;28;20404;-68
2024/01/18 12:22:05;;;;;;;5.60;5.10;;;3.00;99.90;;;;;;5073575;28;20462;-67
2024/01/18 12:24:32;;;;;;;5.90;5.00;;;2.70;99.90;;;;;;5073053;28;20824;-67
2024/01/18 12:26:58;;;;;;;4.60;4.20;;;2.60;99.90;;;;;;5073454;28;20404;-67
2024/01/18 12:29:24;;;;;;;6.00;5.40;;;2.40;99.90;;;;;;5073061;28;20412;-67
2024/01/18 12:31:50;;;;;;;5.73;5.23;;;2.40;99.90;;;;;;5073466;28;20413;-67
2024/01/18 12:34:19;;;;;;;4.53;4.13;;;2.50;99.90;;;;;;5073415;28;20776;-67
2024/01/18 12:36:46;;;;;;;5.57;5.10;;;2.40;99.90;;;;;;5073877;28;20496;-67
2024/01/18 12:39:12;;;;;;;6.17;5.57;;;2.40;99.90;;;;;;5072804;28;20404;-67
2024/01/18 12:41:37;;;;;;;5.37;4.97;;;2.40;99.90;;;;;;5072997;28;20404;-66
2024/01/18 12:44:07;;;;;;;6.07;5.50;;;2.30;99.90;;;;;;5073080;28;20464;-66
2024/01/18 12:46:34;;;;;;;5.80;5.30;;;2.20;99.90;;;;;;5073557;28;20243;-67
2024/01/18 12:49:01;;;;;;;6.00;5.40;;;2.30;99.90;;;;;;5073208;28;20408;-68